Time;durP1;ratioP1;P1;durP2;ratioP2;P2;SDS_P1;SDS_P2;PMS_P1;PMS_P2;Temp;Humidity;BMP_temperature;BMP_pressure;BME280_temperature;BME280_humidity;BME280_pressure;Samples;Min_cycle;Max_cycle;Signal;HPM_P1;HPM_P2
2022/08/01 00:01:59;;;;;;;3.45;2.08;;;;;;;;;;5115321;28;20571;-86
2022/08/01 00:04:26;;;;;;;1.77;1.67;;;;;;;;;;5116094;28;20229;-86
2022/08/01 00:06:54;;;;;;;2.03;1.90;;;;;;;;;;5110864;28;20197;-86
2022/08/01 00:09:21;;;;;;;1.75;1.65;;;;;;;;;;5102513;28;20204;-85
2022/08/01 00:11:48;;;;;;;1.80;1.70;;;;;;;;;;5099153;28;20211;-85
2022/08/01 00:14:15;;;;;;;2.38;1.98;;;;;;;;;;5084595;28;20605;-85
2022/08/01 00:16:42;;;;;;;2.45;1.88;;;;;;;;;;5077898;28;20209;-85
2022/08/01 00:19:09;;;;;;;1.80;1.70;;;;;;;;;;5075982;28;20660;-85
2022/08/01 00:21:36;;;;;;;3.10;1.85;;;;;;;;;;5086189;28;20194;-85
2022/08/01 00:24:05;;;;;;;2.55;1.52;;;;;;;;;;5075361;28;20229;-85
2022/08/01 00:26:32;;;;;;;2.00;1.88;;;;;;;;;;5074188;28;20213;-85
2022/08/01 00:28:59;;;;;;;1.55;1.45;;;;;;;;;;5074815;28;20232;-85
2022/08/01 00:31:26;;;;;;;2.03;1.60;;;;;;;;;;5080094;28;20208;-85
2022/08/01 00:33:53;;;;;;;2.15;1.50;;;;;;;;;;5089436;28;20229;-85
2022/08/01 00:36:20;;;;;;;1.67;1.40;;;;;;;;;;5074381;28;20209;-85
2022/08/01 00:38:47;;;;;;;2.00;1.45;;;;;;;;;;5073201;28;20233;-85
2022/08/01 00:41:16;;;;;;;2.30;1.80;;;;;;;;;;5075614;28;20680;-87
2022/08/01 00:43:43;;;;;;;1.73;1.63;;;;;;;;;;5094140;28;20244;-87
2022/08/01 00:46:10;;;;;;;2.08;1.70;;;;;;;;;;5094055;28;20197;-87
2022/08/01 00:48:37;;;;;;;1.85;1.75;;;;;;;;;;5079741;28;20229;-87
2022/08/01 00:51:05;;;;;;;1.80;1.70;;;;;;;;;;5073836;28;20208;-87
2022/08/01 00:53:32;;;;;;;1.65;1.55;;;;;;;;;;5092692;28;20229;-87
2022/08/01 00:56:03;;;;;;;2.67;1.52;;;;;;;;;;5091447;28;20209;-89
2022/08/01 00:58:32;;;;;;;1.92;1.58;;;;;;;;;;5100702;28;20246;-87
2022/08/01 01:00:59;;;;;;;1.63;1.50;;;;;;;;;;5114713;28;20547;-88
2022/08/01 01:03:26;;;;;;;1.90;1.80;;;;;;;;;;5094660;28;20235;-87
2022/08/01 01:05:59;;;;;;;1.85;1.75;;;;;;;;;;5087938;28;20197;-86
2022/08/01 01:08:31;;;;;;;2.53;1.63;;;;;;;;;;5072757;28;20229;-86
2022/08/01 01:11:02;;;;;;;4.65;1.77;;;;;;;;;;5080548;28;20199;-86
2022/08/01 01:13:35;;;;;;;6.60;2.20;;;;;;;;;;5074413;28;20229;-85
2022/08/01 01:16:04;;;;;;;2.97;1.88;;;;;;;;;;5072936;28;20571;-86
2022/08/01 01:18:34;;;;;;;8.23;2.35;;;;;;;;;;5072097;28;20755;-86
2022/08/01 01:21:05;;;;;;;2.40;2.20;;;;;;;;;;5085080;28;20602;-87
2022/08/01 01:23:41;;;;;;;2.70;2.25;;;;;;;;;;5081932;28;20225;-86
2022/08/01 01:26:19;;;;;;;5.20;1.80;;;;;;;;;;5105017;28;20204;-86
2022/08/01 01:29:10;;;;;;;3.45;2.08;;;;;;;;;;5098444;28;20228;-86
2022/08/01 01:31:41;;;;;;;2.65;1.98;;;;;;;;;;5107005;28;20259;-86
2022/08/01 01:34:09;;;;;;;3.15;1.70;;;;;;;;;;5072734;28;20263;-86
2022/08/01 01:36:37;;;;;;;2.00;1.90;;;;;;;;;;5075429;28;20212;-86
2022/08/01 01:39:04;;;;;;;3.33;2.10;;;;;;;;;;5094456;28;20217;-87
2022/08/01 01:41:31;;;;;;;1.27;1.27;;;;;;;;;;5097843;28;20205;-86
2022/08/01 01:44:00;;;;;;;1.70;1.40;;;;;;;;;;5109191;28;20232;-86
2022/08/01 01:46:29;;;;;;;1.65;1.55;;;;;;;;;;5092912;28;20253;-87
2022/08/01 01:48:58;;;;;;;3.58;2.03;;;;;;;;;;5106706;28;20228;-86
2022/08/01 01:51:26;;;;;;;1.88;1.77;;;;;;;;;;5107532;28;20192;-86
2022/08/01 01:53:54;;;;;;;1.70;1.60;;;;;;;;;;5094559;28;20301;-85
2022/08/01 01:56:22;;;;;;;1.90;1.80;;;;;;;;;;5098700;28;20208;-85
2022/08/01 01:58:52;;;;;;;5.63;2.05;;;;;;;;;;5086643;28;20320;-86
2022/08/01 02:01:19;;;;;;;7.53;1.80;;;;;;;;;;5080380;28;20201;-85
2022/08/01 02:03:49;;;;;;;2.17;1.73;;;;;;;;;;5074020;28;20359;-85
2022/08/01 02:06:17;;;;;;;3.47;1.95;;;;;;;;;;5086560;28;20569;-85
2022/08/01 02:08:45;;;;;;;1.90;1.73;;;;;;;;;;5072126;28;20287;-85
2022/08/01 02:11:21;;;;;;;4.80;1.98;;;;;;;;;;5072419;28;20209;-85
2022/08/01 02:13:51;;;;;;;1.90;1.75;;;;;;;;;;5072035;28;20239;-85
2022/08/01 02:16:18;;;;;;;2.45;1.67;;;;;;;;;;5072462;28;20222;-85
2022/08/01 02:18:45;;;;;;;2.67;2.22;;;;;;;;;;5071867;28;20237;-85
2022/08/01 02:21:15;;;;;;;1.92;1.65;;;;;;;;;;5078067;28;20216;-85
2022/08/01 02:23:43;;;;;;;4.15;1.90;;;;;;;;;;5072068;28;20244;-85
2022/08/01 02:26:12;;;;;;;1.90;1.80;;;;;;;;;;5074472;28;20201;-85
2022/08/01 02:28:42;;;;;;;4.15;1.77;;;;;;;;;;5077700;28;20680;-85
2022/08/01 02:31:14;;;;;;;2.05;1.45;;;;;;;;;;5089341;28;20201;-85
2022/08/01 02:33:47;;;;;;;1.77;1.40;;;;;;;;;;5087769;28;20323;-85
2022/08/01 02:36:18;;;;;;;2.67;1.67;;;;;;;;;;5082236;28;20225;-85
2022/08/01 02:38:47;;;;;;;1.58;1.48;;;;;;;;;;5084241;28;20240;-84
2022/08/01 02:41:15;;;;;;;1.55;1.45;;;;;;;;;;5085701;28;20266;-85
2022/08/01 02:43:45;;;;;;;1.65;1.55;;;;;;;;;;5075823;28;20240;-85
2022/08/01 02:46:17;;;;;;;2.65;1.55;;;;;;;;;;5087518;28;20201;-85
2022/08/01 02:48:45;;;;;;;1.60;1.48;;;;;;;;;;5082140;28;20243;-85
2022/08/01 02:51:13;;;;;;;2.08;1.38;;;;;;;;;;5089046;28;20221;-85
2022/08/01 02:53:42;;;;;;;2.17;1.40;;;;;;;;;;5075644;28;20604;-85
2022/08/01 02:56:10;;;;;;;1.30;1.23;;;;;;;;;;5079965;28;20244;-86
2022/08/01 02:58:38;;;;;;;4.40;1.63;;;;;;;;;;5082774;28;20307;-84
2022/08/01 03:01:06;;;;;;;1.67;1.58;;;;;;;;;;5096045;28;20193;-86
2022/08/01 03:03:33;;;;;;;2.58;1.60;;;;;;;;;;5095655;28;20251;-85
2022/08/01 03:06:01;;;;;;;1.45;1.35;;;;;;;;;;5096480;28;20189;-84
2022/08/01 03:08:30;;;;;;;1.80;1.70;;;;;;;;;;5095583;28;20239;-84
2022/08/01 03:10:59;;;;;;;1.35;1.30;;;;;;;;;;5095759;28;20249;-86
2022/08/01 03:13:26;;;;;;;1.33;1.23;;;;;;;;;;5095465;28;20232;-84
2022/08/01 03:15:55;;;;;;;1.40;1.33;;;;;;;;;;5095700;28;20696;-85
2022/08/01 03:18:23;;;;;;;1.40;1.30;;;;;;;;;;5095311;28;20232;-84
2022/08/01 03:20:51;;;;;;;1.55;1.45;;;;;;;;;;5095840;28;20546;-84
2022/08/01 03:23:19;;;;;;;1.58;1.48;;;;;;;;;;5095094;28;20229;-84
2022/08/01 03:25:46;;;;;;;2.60;1.70;;;;;;;;;;5095727;28;20197;-84
2022/08/01 03:28:15;;;;;;;1.60;1.50;;;;;;;;;;5093040;28;20232;-84
2022/08/01 03:30:44;;;;;;;1.70;1.60;;;;;;;;;;5090488;28;20669;-84
2022/08/01 03:33:11;;;;;;;1.80;1.70;;;;;;;;;;5084240;28;20232;-85
2022/08/01 03:35:40;;;;;;;1.48;1.40;;;;;;;;;;5093899;28;20220;-86
2022/08/01 03:38:10;;;;;;;1.48;1.38;;;;;;;;;;5099217;28;20228;-85
2022/08/01 03:40:38;;;;;;;1.65;1.55;;;;;;;;;;5115557;28;20207;-85
2022/08/01 03:43:07;;;;;;;1.50;1.40;;;;;;;;;;5115461;28;20258;-86
2022/08/01 03:45:38;;;;;;;1.98;1.48;;;;;;;;;;5115881;28;20235;-86
2022/08/01 03:48:08;;;;;;;1.63;1.48;;;;;;;;;;5115228;28;20610;-86
2022/08/01 03:50:35;;;;;;;1.70;1.60;;;;;;;;;;5115529;28;20215;-87
2022/08/01 03:53:04;;;;;;;1.50;1.40;;;;;;;;;;5113704;28;20224;-86
2022/08/01 03:55:32;;;;;;;1.63;1.42;;;;;;;;;;5111432;28;20258;-87
2022/08/01 03:57:59;;;;;;;1.35;1.13;;;;;;;;;;5112001;28;20228;-89
2022/08/01 04:00:26;;;;;;;5.18;1.38;;;;;;;;;;5103719;28;20671;-84
2022/08/01 04:02:55;;;;;;;2.42;1.38;;;;;;;;;;5103525;28;20731;-88
2022/08/01 04:05:22;;;;;;;1.35;1.25;;;;;;;;;;5097094;28;20231;-88
2022/08/01 04:07:54;;;;;;;2.65;1.55;;;;;;;;;;5096107;28;20236;-88
2022/08/01 04:10:22;;;;;;;2.70;1.48;;;;;;;;;;5096394;28;20288;-89
2022/08/01 04:12:49;;;;;;;1.88;1.30;;;;;;;;;;5095229;28;20232;-88
2022/08/01 04:15:16;;;;;;;2.03;1.30;;;;;;;;;;5095796;28;20233;-90
2022/08/01 04:17:43;;;;;;;1.38;1.30;;;;;;;;;;5092762;28;20224;-90
2022/08/01 04:20:12;;;;;;;3.60;1.30;;;;;;;;;;5095266;28;20200;-90
2022/08/01 04:22:40;;;;;;;1.25;1.15;;;;;;;;;;5093817;28;20232;-86
2022/08/01 04:25:10;;;;;;;1.40;1.10;;;;;;;;;;5095239;28;20224;-89
2022/08/01 04:27:38;;;;;;;2.15;1.33;;;;;;;;;;5095106;28;20239;-88
2022/08/01 04:30:06;;;;;;;2.00;1.58;;;;;;;;;;5094948;28;20572;-88
2022/08/01 04:32:35;;;;;;;5.70;1.90;;;;;;;;;;5093798;28;20228;-87
2022/08/01 04:35:04;;;;;;;4.93;1.60;;;;;;;;;;5094259;28;20297;-86
2022/08/01 04:37:32;;;;;;;1.65;1.55;;;;;;;;;;5093671;28;20235;-86
2022/08/01 04:40:00;;;;;;;3.42;1.30;;;;;;;;;;5093966;28;20212;-86
2022/08/01 04:42:27;;;;;;;2.00;1.55;;;;;;;;;;5093085;28;20228;-86
2022/08/01 04:44:54;;;;;;;3.20;1.60;;;;;;;;;;5093979;28;20229;-84
2022/08/01 04:47:23;;;;;;;1.58;1.42;;;;;;;;;;5093847;28;20236;-87
2022/08/01 04:49:50;;;;;;;1.55;1.20;;;;;;;;;;5093413;28;20205;-86
2022/08/01 04:52:18;;;;;;;1.85;1.65;;;;;;;;;;5091458;28;20240;-86
2022/08/01 04:54:47;;;;;;;1.35;1.27;;;;;;;;;;5093520;28;20659;-86
2022/08/01 04:57:14;;;;;;;1.58;1.48;;;;;;;;;;5093070;28;20643;-86
2022/08/01 04:59:44;;;;;;;1.70;1.60;;;;;;;;;;5104977;28;20203;-87
2022/08/01 05:02:12;;;;;;;1.60;1.50;;;;;;;;;;5113586;28;20227;-86
2022/08/01 05:04:39;;;;;;;1.20;0.93;;;;;;;;;;5113701;28;20235;-86
2022/08/01 05:07:07;;;;;;;1.13;1.13;;;;;;;;;;5113815;28;20202;-87
2022/08/01 05:09:35;;;;;;;3.55;1.60;;;;;;;;;;5113765;28;20215;-86
2022/08/01 05:12:05;;;;;;;2.22;1.30;;;;;;;;;;5113844;28;20634;-89
2022/08/01 05:14:33;;;;;;;2.08;1.52;;;;;;;;;;5114391;28;20231;-87
2022/08/01 05:17:02;;;;;;;4.13;1.35;;;;;;;;;;5113294;28;20228;-85
2022/08/01 05:19:30;;;;;;;1.30;1.20;;;;;;;;;;5113699;28;20389;-86
2022/08/01 05:21:57;;;;;;;1.48;1.38;;;;;;;;;;5113183;28;20208;-83
2022/08/01 05:24:24;;;;;;;1.40;1.30;;;;;;;;;;5114503;28;20220;-87
2022/08/01 05:26:51;;;;;;;1.20;1.20;;;;;;;;;;5124470;28;20202;-85
2022/08/01 05:29:19;;;;;;;1.70;1.60;;;;;;;;;;5132081;28;20211;-85
2022/08/01 05:31:46;;;;;;;1.60;1.48;;;;;;;;;;5134540;28;20206;-87
2022/08/01 05:34:14;;;;;;;2.40;1.60;;;;;;;;;;5117745;28;20236;-86
2022/08/01 05:36:41;;;;;;;2.92;1.75;;;;;;;;;;5115270;28;20219;-85
2022/08/01 05:39:08;;;;;;;2.90;1.60;;;;;;;;;;5115461;28;20227;-85
2022/08/01 05:41:37;;;;;;;1.55;1.45;;;;;;;;;;5114712;28;20208;-86
2022/08/01 05:44:04;;;;;;;1.55;1.45;;;;;;;;;;5113864;28;20263;-86
2022/08/01 05:46:33;;;;;;;1.55;1.45;;;;;;;;;;5114358;28;20215;-87
2022/08/01 05:49:00;;;;;;;2.20;1.30;;;;;;;;;;5112784;28;20273;-86
2022/08/01 05:51:27;;;;;;;1.55;1.45;;;;;;;;;;5113620;28;20249;-90
2022/08/01 05:53:55;;;;;;;1.70;1.30;;;;;;;;;;5110015;28;20737;-87
2022/08/01 05:56:22;;;;;;;1.30;1.20;;;;;;;;;;5092874;28;20231;-90
2022/08/01 05:58:50;;;;;;;1.10;1.10;;;;;;;;;;5093634;28;20307;-90
2022/08/01 06:01:17;;;;;;;1.35;1.33;;;;;;;;;;5088068;28;20206;-89
2022/08/01 06:03:45;;;;;;;3.10;1.33;;;;;;;;;;5101810;28;20751;-89
2022/08/01 06:06:13;;;;;;;1.30;1.20;;;;;;;;;;5093152;28;20209;-88
2022/08/01 06:08:40;;;;;;;1.40;1.30;;;;;;;;;;5093041;28;20236;-87
2022/08/01 06:11:07;;;;;;;1.55;1.45;;;;;;;;;;5094089;28;20201;-88
2022/08/01 06:13:35;;;;;;;3.08;1.45;;;;;;;;;;5093205;28;20243;-85
2022/08/01 06:16:03;;;;;;;1.33;1.23;;;;;;;;;;5095803;28;20227;-87
2022/08/01 06:18:30;;;;;;;1.70;1.10;;;;;;;;;;5093334;28;20232;-88
2022/08/01 06:20:58;;;;;;;2.65;1.40;;;;;;;;;;5094692;28;20220;-85
2022/08/01 06:23:25;;;;;;;1.40;1.20;;;;;;;;;;5094679;28;20232;-87
2022/08/01 06:25:53;;;;;;;4.75;1.45;;;;;;;;;;5094606;28;20609;-87
2022/08/01 06:28:20;;;;;;;1.50;1.40;;;;;;;;;;5091884;28;20259;-89
2022/08/01 06:30:48;;;;;;;2.35;1.27;;;;;;;;;;5092512;28;20213;-88
2022/08/01 06:33:15;;;;;;;1.33;1.23;;;;;;;;;;5093177;28;20611;-88
2022/08/01 06:35:42;;;;;;;1.75;1.48;;;;;;;;;;5094085;28;20237;-88
2022/08/01 06:38:10;;;;;;;3.45;1.20;;;;;;;;;;5092835;28;20243;-89
2022/08/01 06:40:38;;;;;;;1.77;1.27;;;;;;;;;;5093691;28;20204;-87
2022/08/01 06:43:05;;;;;;;1.35;1.25;;;;;;;;;;5092853;28;20233;-88
2022/08/01 06:45:32;;;;;;;1.50;1.40;;;;;;;;;;5092952;28;20228;-89
2022/08/01 06:47:59;;;;;;;2.55;1.50;;;;;;;;;;5093150;28;20263;-89
2022/08/01 06:50:26;;;;;;;2.25;1.30;;;;;;;;;;5093083;28;20201;-88
2022/08/01 06:52:53;;;;;;;1.40;1.30;;;;;;;;;;5092650;28;20240;-87
2022/08/01 06:55:22;;;;;;;1.70;1.60;;;;;;;;;;5093545;28;20221;-88
2022/08/01 06:57:50;;;;;;;2.15;1.42;;;;;;;;;;5089028;28;20232;-89
2022/08/01 07:00:18;;;;;;;1.50;1.40;;;;;;;;;;5092335;28;20209;-88
2022/08/01 07:02:46;;;;;;;1.58;1.38;;;;;;;;;;5090445;28;20275;-88
2022/08/01 07:05:13;;;;;;;1.80;1.55;;;;;;;;;;5092045;28;20604;-88
2022/08/01 07:07:40;;;;;;;1.25;1.20;;;;;;;;;;5087870;28;20681;-89
2022/08/01 07:10:08;;;;;;;1.88;1.67;;;;;;;;;;5082461;28;20296;-87
2022/08/01 07:12:37;;;;;;;1.98;1.50;;;;;;;;;;5082937;28;20250;-88
2022/08/01 07:15:05;;;;;;;1.98;1.40;;;;;;;;;;5085268;28;20224;-87
2022/08/01 07:17:32;;;;;;;1.90;1.80;;;;;;;;;;5088329;28;20286;-88
2022/08/01 07:19:59;;;;;;;1.60;1.50;;;;;;;;;;5095235;28;20208;-87
2022/08/01 07:22:26;;;;;;;1.33;1.25;;;;;;;;;;5095099;28;20229;-86
2022/08/01 07:24:53;;;;;;;1.60;1.50;;;;;;;;;;5095596;28;20237;-86
2022/08/01 07:27:20;;;;;;;2.65;1.50;;;;;;;;;;5094993;28;20281;-86
2022/08/01 07:29:49;;;;;;;1.50;1.40;;;;;;;;;;5095563;28;20205;-88
2022/08/01 07:32:16;;;;;;;1.70;1.40;;;;;;;;;;5093937;28;20232;-88
2022/08/01 07:34:43;;;;;;;1.55;1.45;;;;;;;;;;5095620;28;20224;-86
2022/08/01 07:37:10;;;;;;;1.60;1.50;;;;;;;;;;5095260;28;20676;-88
2022/08/01 07:39:37;;;;;;;2.17;1.92;;;;;;;;;;5095160;28;20269;-88
2022/08/01 07:42:04;;;;;;;1.48;1.38;;;;;;;;;;5095100;28;20629;-88
2022/08/01 07:44:31;;;;;;;1.55;1.45;;;;;;;;;;5095657;28;20895;-88
2022/08/01 07:46:59;;;;;;;1.58;1.48;;;;;;;;;;5094353;28;20250;-90
2022/08/01 07:49:26;;;;;;;1.52;1.42;;;;;;;;;;5101840;28;20196;-89
2022/08/01 07:51:54;;;;;;;2.55;1.48;;;;;;;;;;5113925;28;20224;-87
2022/08/01 07:54:23;;;;;;;2.95;1.80;;;;;;;;;;5115312;28;20643;-88
2022/08/01 07:56:50;;;;;;;1.70;1.60;;;;;;;;;;5114649;28;20224;-87
2022/08/01 07:59:22;;;;;;;1.67;1.52;;;;;;;;;;5114956;28;20195;-89
2022/08/01 08:01:50;;;;;;;2.58;1.73;;;;;;;;;;5085213;28;20208;-89
2022/08/01 08:04:18;;;;;;;1.70;1.60;;;;;;;;;;5094065;28;20309;-88
2022/08/01 08:06:47;;;;;;;2.75;1.27;;;;;;;;;;5082771;28;20217;-87
2022/08/01 08:09:14;;;;;;;2.05;1.55;;;;;;;;;;5110154;28;20276;-84
2022/08/01 08:11:43;;;;;;;1.67;1.58;;;;;;;;;;5117107;28;20226;-85
2022/08/01 08:14:10;;;;;;;3.33;1.50;;;;;;;;;;5115313;28;20228;-85
2022/08/01 08:16:37;;;;;;;1.85;1.30;;;;;;;;;;5116527;28;20224;-86
2022/08/01 08:19:04;;;;;;;1.38;1.27;;;;;;;;;;5116418;28;20460;-86
2022/08/01 08:21:33;;;;;;;1.10;1.10;;;;;;;;;;5116042;28;20219;-85
2022/08/01 08:26:45;;;;;;;1.95;1.48;;;;;;;;;;5112028;28;20618;-86
2022/08/01 08:29:12;;;;;;;2.22;1.55;;;;;;;;;;5100499;28;20711;-88
2022/08/01 08:31:39;;;;;;;1.60;1.50;;;;;;;;;;5095790;28;20208;-88
2022/08/01 08:34:06;;;;;;;1.58;1.35;;;;;;;;;;5094919;28;20240;-89
2022/08/01 08:36:34;;;;;;;2.45;1.50;;;;;;;;;;5094697;28;20224;-88
2022/08/01 08:39:02;;;;;;;3.45;1.67;;;;;;;;;;5096729;28;20236;-89
2022/08/01 08:41:30;;;;;;;1.67;1.58;;;;;;;;;;5096331;28;20211;-90
2022/08/01 08:43:58;;;;;;;1.73;1.50;;;;;;;;;;5093296;28;20232;-87
2022/08/01 08:46:26;;;;;;;1.55;1.42;;;;;;;;;;5093590;28;20200;-89
2022/08/01 08:48:54;;;;;;;2.60;1.45;;;;;;;;;;5109754;28;20720;-88
2022/08/01 08:51:21;;;;;;;3.97;1.60;;;;;;;;;;5097184;28;20201;-87
2022/08/01 08:53:50;;;;;;;1.48;1.48;;;;;;;;;;5105320;28;20731;-88
2022/08/01 08:56:17;;;;;;;1.58;1.48;;;;;;;;;;5108896;28;20208;-88
2022/08/01 08:58:45;;;;;;;1.92;1.60;;;;;;;;;;5102573;28;20247;-90
2022/08/01 09:01:13;;;;;;;1.92;1.80;;;;;;;;;;5102773;28;20201;-90
2022/08/01 09:03:41;;;;;;;1.75;1.65;;;;;;;;;;5100506;28;20244;-89
2022/08/01 09:06:08;;;;;;;1.80;1.70;;;;;;;;;;5104952;28;20185;-89
2022/08/01 09:08:35;;;;;;;1.80;1.70;;;;;;;;;;5101254;28;20232;-89
2022/08/01 09:11:04;;;;;;;2.25;2.00;;;;;;;;;;5112455;28;20195;-87
2022/08/01 09:13:31;;;;;;;2.47;1.80;;;;;;;;;;5115445;28;20685;-87
2022/08/01 09:15:59;;;;;;;1.70;1.60;;;;;;;;;;5112988;28;20185;-88
2022/08/01 09:18:34;;;;;;;1.95;1.70;;;;;;;;;;5116002;28;20216;-93
2022/08/01 09:21:13;;;;;;;1.58;1.48;;;;;;;;;;5117191;28;20195;-93
2022/08/01 09:23:42;;;;;;;2.05;1.70;;;;;;;;;;5109782;28;20232;-90
2022/08/01 09:26:11;;;;;;;1.40;1.35;;;;;;;;;;5094415;28;20287;-90
2022/08/01 09:28:38;;;;;;;1.58;1.48;;;;;;;;;;5094951;28;20235;-88
2022/08/01 09:31:09;;;;;;;1.50;1.40;;;;;;;;;;5094307;28;20212;-91
2022/08/01 09:33:49;;;;;;;1.30;1.20;;;;;;;;;;5093662;28;20238;-89
2022/08/01 09:36:16;;;;;;;1.70;1.35;;;;;;;;;;5094910;28;20269;-89
2022/08/01 09:38:43;;;;;;;1.30;1.25;;;;;;;;;;5092262;28;20236;-89
2022/08/01 09:41:12;;;;;;;1.30;1.20;;;;;;;;;;5092429;28;20221;-89
2022/08/01 09:43:39;;;;;;;1.70;1.60;;;;;;;;;;5093122;28;20240;-89
2022/08/01 09:46:06;;;;;;;3.10;1.55;;;;;;;;;;5093498;28;20232;-89
2022/08/01 09:48:33;;;;;;;2.60;1.40;;;;;;;;;;5092818;28;20240;-90
2022/08/01 09:51:01;;;;;;;1.95;1.75;;;;;;;;;;5072452;28;20804;-90
2022/08/01 09:53:28;;;;;;;1.55;1.33;;;;;;;;;;5072137;28;20240;-89
2022/08/01 09:55:55;;;;;;;1.50;1.40;;;;;;;;;;5072696;28;20209;-90
2022/08/01 09:58:24;;;;;;;2.08;1.45;;;;;;;;;;5072905;28;20237;-89
2022/08/01 10:00:59;;;;;;;1.63;1.52;;;;;;;;;;5073729;28;20205;-92
2022/08/01 10:03:29;;;;;;;1.70;1.50;;;;;;;;;;5072767;28;20283;-90
2022/08/01 10:05:56;;;;;;;1.95;1.50;;;;;;;;;;5072528;28;20193;-90
2022/08/01 10:08:25;;;;;;;2.65;1.40;;;;;;;;;;5076151;28;20613;-91
2022/08/01 10:11:08;;;;;;;3.30;1.40;;;;;;;;;;5072780;28;20209;-91
2022/08/01 10:13:36;;;;;;;1.40;1.30;;;;;;;;;;5073349;28;20224;-91
2022/08/01 10:16:05;;;;;;;1.35;1.25;;;;;;;;;;5072617;28;20205;-90
2022/08/01 10:18:33;;;;;;;1.77;1.30;;;;;;;;;;5072887;28;20279;-89
2022/08/01 10:21:00;;;;;;;1.60;1.17;;;;;;;;;;5075278;28;20632;-90
2022/08/01 10:23:27;;;;;;;1.02;0.90;;;;;;;;;;5075861;28;20573;-91
2022/08/01 10:25:55;;;;;;;1.27;1.17;;;;;;;;;;5074238;28;20201;-91
2022/08/01 10:28:23;;;;;;;1.60;1.50;;;;;;;;;;5073309;28;20236;-91
2022/08/01 10:30:51;;;;;;;1.75;1.35;;;;;;;;;;5072341;28;20379;-91
2022/08/01 10:33:18;;;;;;;1.83;1.48;;;;;;;;;;5074001;28;20244;-90
2022/08/01 10:35:47;;;;;;;1.15;1.15;;;;;;;;;;5072666;28;20645;-91
2022/08/01 10:38:14;;;;;;;1.38;1.27;;;;;;;;;;5072673;28;20237;-90
2022/08/01 10:40:41;;;;;;;1.92;1.05;;;;;;;;;;5072715;28;20208;-91
2022/08/01 10:43:09;;;;;;;1.70;0.98;;;;;;;;;;5073130;28;20844;-91
2022/08/01 10:45:36;;;;;;;2.20;1.42;;;;;;;;;;5073336;28;20224;-89
2022/08/01 10:48:10;;;;;;;1.10;1.00;;;;;;;;;;5073035;28;20226;-90
2022/08/01 10:50:40;;;;;;;1.38;1.27;;;;;;;;;;5076065;28;20209;-90
2022/08/01 10:53:14;;;;;;;2.25;0.98;;;;;;;;;;5076418;28;20255;-90
2022/08/01 10:55:48;;;;;;;1.10;0.95;;;;;;;;;;5076568;28;20228;-92
2022/08/01 10:58:15;;;;;;;1.23;1.13;;;;;;;;;;5075902;28;20618;-89
2022/08/01 11:00:42;;;;;;;1.23;1.02;;;;;;;;;;5075748;28;20201;-89
2022/08/01 11:03:15;;;;;;;0.85;0.82;;;;;;;;;;5094981;28;20758;-89
2022/08/01 11:05:43;;;;;;;0.90;0.90;;;;;;;;;;5096443;28;20237;-91
2022/08/01 11:08:12;;;;;;;1.52;0.80;;;;;;;;;;5097167;28;20251;-91
2022/08/01 11:10:42;;;;;;;1.30;1.20;;;;;;;;;;5099241;28;20212;-89
2022/08/01 11:13:11;;;;;;;1.27;1.17;;;;;;;;;;5099034;28;20228;-90
2022/08/01 11:15:38;;;;;;;1.40;1.05;;;;;;;;;;5097754;28;20834;-89
2022/08/01 11:18:25;;;;;;;1.45;1.20;;;;;;;;;;5097527;28;20247;-89
2022/08/01 11:21:01;;;;;;;1.33;1.23;;;;;;;;;;5098420;28;20573;-91
2022/08/01 11:23:29;;;;;;;1.40;1.30;;;;;;;;;;5097320;28;20232;-89
2022/08/01 11:26:15;;;;;;;2.25;1.10;;;;;;;;;;5095786;28;20223;-89
2022/08/01 11:28:44;;;;;;;1.23;1.13;;;;;;;;;;5095512;28;20239;-90
2022/08/01 11:31:31;;;;;;;1.25;1.15;;;;;;;;;;5095775;28;20219;-91
2022/08/01 11:33:58;;;;;;;1.10;1.00;;;;;;;;;;5094772;28;20247;-91
2022/08/01 11:36:27;;;;;;;1.20;0.80;;;;;;;;;;5095303;28;20571;-91
2022/08/01 11:39:13;;;;;;;1.33;1.23;;;;;;;;;;5094628;28;20229;-92
2022/08/01 11:41:40;;;;;;;1.45;1.20;;;;;;;;;;5095424;28;20203;-91
2022/08/01 11:44:08;;;;;;;1.58;1.13;;;;;;;;;;5094739;28;20244;-90
2022/08/01 11:46:52;;;;;;;1.77;1.45;;;;;;;;;;5095467;28;20208;-90
2022/08/01 11:49:32;;;;;;;1.10;1.10;;;;;;;;;;5095702;28;20221;-90
2022/08/01 11:52:01;;;;;;;0.98;0.98;;;;;;;;;;5095972;28;20652;-90
2022/08/01 11:54:29;;;;;;;2.25;1.30;;;;;;;;;;5096140;28;20649;-89
2022/08/01 11:56:56;;;;;;;1.48;1.40;;;;;;;;;;5089596;28;20726;-90
2022/08/01 11:59:24;;;;;;;1.60;1.40;;;;;;;;;;5096295;28;20211;-90
2022/08/01 12:01:51;;;;;;;1.85;1.30;;;;;;;;;;5093104;28;20719;-88
2022/08/01 12:04:18;;;;;;;1.35;1.10;;;;;;;;;;5094490;28;20228;-88
2022/08/01 12:06:45;;;;;;;0.90;0.90;;;;;;;;;;5094508;28;20244;-88
2022/08/01 12:09:25;;;;;;;0.70;0.70;;;;;;;;;;5093619;28;20244;-88
2022/08/01 12:11:54;;;;;;;0.77;0.77;;;;;;;;;;5093420;28;20257;-86
2022/08/01 12:14:21;;;;;;;0.90;0.90;;;;;;;;;;5093600;28;20228;-84
2022/08/01 12:16:53;;;;;;;0.95;0.95;;;;;;;;;;5094206;28;20661;-88
2022/08/01 12:19:24;;;;;;;0.70;0.70;;;;;;;;;;5094556;28;20618;-89
2022/08/01 12:22:06;;;;;;;0.90;0.90;;;;;;;;;;5093291;28;20629;-89
2022/08/01 12:24:35;;;;;;;0.98;0.98;;;;;;;;;;5094377;28;20647;-89
2022/08/01 12:27:02;;;;;;;1.42;0.90;;;;;;;;;;5094456;28;20215;-89
2022/08/01 12:29:33;;;;;;;1.23;1.10;;;;;;;;;;5093584;28;20209;-88
2022/08/01 12:32:00;;;;;;;0.80;0.80;;;;;;;;;;5092929;28;20530;-89
2022/08/01 12:34:28;;;;;;;2.00;0.90;;;;;;;;;;5093011;28;20255;-90
2022/08/01 12:36:56;;;;;;;0.80;0.80;;;;;;;;;;5093361;28;20200;-90
2022/08/01 12:39:23;;;;;;;1.58;0.77;;;;;;;;;;5093547;28;20653;-88
2022/08/01 12:41:51;;;;;;;0.98;0.98;;;;;;;;;;5092765;28;20204;-88
2022/08/01 12:44:18;;;;;;;1.98;0.90;;;;;;;;;;5093615;28;20220;-89
2022/08/01 12:46:45;;;;;;;1.42;0.98;;;;;;;;;;5093020;28;20624;-89
2022/08/01 12:49:13;;;;;;;1.73;1.10;;;;;;;;;;5093153;28;20223;-89
2022/08/01 12:51:40;;;;;;;1.63;1.25;;;;;;;;;;5092845;28;20295;-88
2022/08/01 12:54:09;;;;;;;1.52;0.80;;;;;;;;;;5092715;28;20246;-89
2022/08/01 12:56:37;;;;;;;0.80;0.80;;;;;;;;;;5093324;28;20629;-89
2022/08/01 12:59:19;;;;;;;0.98;0.98;;;;;;;;;;5093003;28;20231;-87
2022/08/01 13:01:48;;;;;;;0.70;0.70;;;;;;;;;;5093538;28;20222;-89
2022/08/01 13:04:15;;;;;;;0.90;0.90;;;;;;;;;;5092782;28;20235;-88
2022/08/01 13:06:42;;;;;;;2.60;0.88;;;;;;;;;;5091698;28;20199;-89
2022/08/01 13:09:10;;;;;;;0.93;0.93;;;;;;;;;;5091929;28;20274;-88
2022/08/01 13:11:37;;;;;;;1.20;1.10;;;;;;;;;;5092758;28;20601;-88
2022/08/01 13:14:04;;;;;;;1.00;0.95;;;;;;;;;;5091555;28;20235;-89
2022/08/01 13:16:31;;;;;;;0.98;0.90;;;;;;;;;;5093254;28;20204;-87
2022/08/01 13:19:00;;;;;;;1.00;1.00;;;;;;;;;;5094097;28;20743;-88
2022/08/01 13:21:28;;;;;;;1.20;1.10;;;;;;;;;;5092714;28;20234;-90
2022/08/01 13:24:02;;;;;;;0.90;0.90;;;;;;;;;;5092475;28;20611;-88
2022/08/01 13:26:39;;;;;;;0.95;0.95;;;;;;;;;;5094078;28;20203;-89
2022/08/01 13:29:07;;;;;;;0.90;0.90;;;;;;;;;;5093321;28;20236;-89
2022/08/01 13:31:34;;;;;;;1.00;0.93;;;;;;;;;;5094035;28;20548;-88
2022/08/01 13:34:03;;;;;;;1.15;1.05;;;;;;;;;;5097125;28;20235;-88
2022/08/01 13:36:30;;;;;;;1.50;1.00;;;;;;;;;;5093795;28;20215;-89
2022/08/01 13:41:43;;;;;;;0.98;0.93;;;;;;;;;;5093293;28;20184;-89
2022/08/01 13:44:10;;;;;;;0.98;0.98;;;;;;;;;;5091373;28;20232;-85
2022/08/01 13:46:38;;;;;;;1.23;1.13;;;;;;;;;;5092285;28;20204;-87
2022/08/01 13:49:06;;;;;;;0.68;0.68;;;;;;;;;;5095940;28;20219;-86
2022/08/01 13:51:33;;;;;;;1.13;0.82;;;;;;;;;;5111864;28;20200;-87
2022/08/01 13:54:00;;;;;;;1.63;1.08;;;;;;;;;;5111871;28;20742;-87
2022/08/01 13:56:28;;;;;;;1.83;0.98;;;;;;;;;;5112352;28;20211;-85
2022/08/01 13:58:55;;;;;;;1.10;1.10;;;;;;;;;;5112564;28;20288;-86
2022/08/01 14:01:22;;;;;;;1.00;1.00;;;;;;;;;;5112519;28;20211;-86
2022/08/01 14:03:50;;;;;;;0.82;0.82;;;;;;;;;;5112511;28;20235;-85
2022/08/01 14:06:21;;;;;;;1.38;0.93;;;;;;;;;;5113117;28;20208;-86
2022/08/01 14:08:48;;;;;;;1.20;1.20;;;;;;;;;;5111892;28;20228;-86
2022/08/01 14:11:15;;;;;;;0.90;0.90;;;;;;;;;;5111927;28;20207;-85
2022/08/01 14:13:42;;;;;;;1.33;1.23;;;;;;;;;;5111904;28;20745;-85
2022/08/01 14:16:09;;;;;;;1.50;1.23;;;;;;;;;;5112169;28;20239;-85
2022/08/01 14:18:36;;;;;;;1.00;0.98;;;;;;;;;;5107364;28;20920;-84
2022/08/01 14:21:03;;;;;;;0.98;0.98;;;;;;;;;;5089890;28;20934;-83
2022/08/01 14:23:32;;;;;;;1.08;1.08;;;;;;;;;;5090382;28;20228;-84
2022/08/01 14:25:59;;;;;;;0.82;0.75;;;;;;;;;;5095225;28;20200;-85
2022/08/01 14:28:27;;;;;;;1.00;1.00;;;;;;;;;;5094655;28;20232;-85
2022/08/01 14:30:55;;;;;;;1.17;1.08;;;;;;;;;;5094719;28;20210;-84
2022/08/01 14:33:22;;;;;;;1.13;1.13;;;;;;;;;;5094510;28;20232;-84
2022/08/01 14:35:49;;;;;;;1.10;1.00;;;;;;;;;;5092609;28;20204;-83
2022/08/01 14:38:17;;;;;;;2.03;1.00;;;;;;;;;;5074706;28;20236;-84
2022/08/01 14:40:50;;;;;;;1.10;1.10;;;;;;;;;;5082818;28;20194;-84
2022/08/01 14:43:17;;;;;;;1.58;1.10;;;;;;;;;;5106480;28;20246;-83
2022/08/01 14:45:45;;;;;;;2.40;1.13;;;;;;;;;;5096975;28;20236;-85
2022/08/01 14:48:12;;;;;;;1.02;0.90;;;;;;;;;;5096082;28;20224;-83
2022/08/01 14:50:39;;;;;;;2.05;1.33;;;;;;;;;;5095059;28;20201;-84
2022/08/01 14:53:06;;;;;;;2.10;1.30;;;;;;;;;;5095409;28;20240;-84
2022/08/01 14:55:33;;;;;;;1.15;0.90;;;;;;;;;;5095227;28;20281;-84
2022/08/01 14:58:01;;;;;;;1.60;1.10;;;;;;;;;;5096555;28;20240;-86